Time;durP1;ratioP1;P1;durP2;ratioP2;P2;SDS_P1;SDS_P2;PMS_P1;PMS_P2;Temp;Humidity;BMP_temperature;BMP_pressure;BME280_temperature;BME280_humidity;BME280_pressure;Samples;Min_cycle;Max_cycle;Signal;HPM_P1;HPM_P2
2023/09/18 00:02:24;;;;;;;112.65;43.67;;;;;;;15.75;100.00;100703.16;5073559;28;20025;-78
2023/09/18 00:04:49;;;;;;;117.20;44.10;;;;;;;15.76;100.00;100694.06;5073144;28;20032;-78
2023/09/18 00:07:14;;;;;;;113.82;44.03;;;;;;;15.79;100.00;100687.56;5073643;28;20041;-79
2023/09/18 00:09:40;;;;;;;104.93;40.65;;;;;;;15.81;100.00;100683.69;5072172;28;20401;-79
2023/09/18 00:12:06;;;;;;;101.20;40.35;;;;;;;15.81;100.00;100682.88;5073844;28;20119;-79
2023/09/18 00:14:31;;;;;;;112.18;43.42;;;;;;;15.80;100.00;100676.66;5073711;28;20028;-79
2023/09/18 00:16:57;;;;;;;108.63;41.67;;;;;;;15.84;100.00;100686.03;5073635;28;20123;-86
2023/09/18 00:19:23;;;;;;;104.13;41.03;;;;;;;15.86;100.00;100675.94;5073663;28;20445;-79
2023/09/18 00:21:49;;;;;;;104.03;41.42;;;;;;;15.89;100.00;100680.13;5073590;28;20098;-78
2023/09/18 00:24:14;;;;;;;107.55;43.22;;;;;;;15.94;100.00;100676.91;5073411;28;20028;-79
2023/09/18 00:26:39;;;;;;;107.50;40.55;;;;;;;15.96;100.00;100674.88;5073418;28;20079;-78
2023/09/18 00:29:05;;;;;;;104.03;42.08;;;;;;;16.00;100.00;100670.81;5073367;28;20037;-79
2023/09/18 00:31:30;;;;;;;105.72;40.83;;;;;;;16.01;100.00;100656.41;5071786;28;20042;-78
2023/09/18 00:33:55;;;;;;;97.55;39.35;;;;;;;16.02;100.00;100645.47;5073859;28;20499;-78
2023/09/18 00:36:21;;;;;;;97.65;38.95;;;;;;;16.05;100.00;100649.66;5055150;28;20033;-78
2023/09/18 00:38:47;;;;;;;93.75;39.95;;;;;;;16.08;100.00;100638.56;5073330;28;20051;-78
2023/09/18 00:41:12;;;;;;;98.75;40.50;;;;;;;16.12;100.00;100625.63;5073408;28;20469;-79
2023/09/18 00:43:38;;;;;;;97.68;39.67;;;;;;;16.14;100.00;100624.44;5073166;28;20037;-80
2023/09/18 00:46:03;;;;;;;90.38;39.60;;;;;;;16.14;100.00;100612.88;5072998;28;20500;-78
2023/09/18 00:48:29;;;;;;;93.10;40.20;;;;;;;16.16;100.00;100606.28;5071578;28;20094;-79
2023/09/18 00:50:56;;;;;;;96.28;41.17;;;;;;;16.17;100.00;100591.84;5071686;28;20036;-78
2023/09/18 00:53:24;;;;;;;88.10;38.90;;;;;;;16.18;100.00;100580.13;5072804;28;20444;-77
2023/09/18 00:55:56;;;;;;;90.30;38.90;;;;;;;16.19;100.00;100578.25;5071524;28;20431;-77
2023/09/18 00:58:22;;;;;;;83.82;37.88;;;;;;;16.19;100.00;100564.84;5072879;28;20035;-79
2023/09/18 01:00:49;;;;;;;93.05;40.55;;;;;;;16.20;100.00;100553.91;5073242;28;20082;-79
2023/09/18 01:03:18;;;;;;;85.38;38.50;;;;;;;16.21;100.00;100536.81;5072942;28;20039;-79
2023/09/18 01:05:43;;;;;;;93.28;39.97;;;;;;;16.22;100.00;100537.63;5071975;28;20071;-79
2023/09/18 01:08:09;;;;;;;85.13;37.45;;;;;;;16.21;100.00;100542.16;5072869;28;20338;-78
2023/09/18 01:11:00;;;;;;;78.03;34.90;;;;;;;16.15;100.00;100548.28;5072591;28;20025;-78
2023/09/18 01:13:49;;;;;;;71.85;34.67;;;;;;;16.12;100.00;100548.63;5072369;28;20044;-77
2023/09/18 01:16:24;;;;;;;78.32;36.80;;;;;;;16.08;100.00;100541.97;5072560;28;20033;-78
2023/09/18 01:18:50;;;;;;;78.45;35.80;;;;;;;16.07;100.00;100539.47;5072552;28;20506;-78
2023/09/18 01:21:16;;;;;;;80.75;35.97;;;;;;;16.09;100.00;100545.47;5071414;28;20111;-78
2023/09/18 01:23:42;;;;;;;82.82;36.08;;;;;;;16.07;100.00;100544.84;5072370;28;20044;-78
2023/09/18 01:26:07;;;;;;;77.60;35.08;;;;;;;16.05;100.00;100553.06;5072296;28;20041;-78
2023/09/18 01:28:33;;;;;;;69.68;34.22;;;;;;;16.03;100.00;100560.44;5072360;28;20120;-77
2023/09/18 01:30:58;;;;;;;75.57;35.67;;;;;;;15.99;100.00;100554.63;5072565;28;20028;-78
2023/09/18 01:33:26;;;;;;;81.72;36.95;;;;;;;15.99;100.00;100557.31;5070562;28;20044;-79
2023/09/18 01:35:55;;;;;;;78.00;35.72;;;;;;;16.03;100.00;100560.44;5072276;28;20049;-78
2023/09/18 01:38:22;;;;;;;81.25;37.60;;;;;;;16.04;100.00;100546.84;5071219;28;20131;-78
2023/09/18 01:40:47;;;;;;;84.18;38.28;;;;;;;16.12;100.00;100553.16;5071904;28;20033;-78
2023/09/18 01:43:13;;;;;;;89.78;39.92;;;;;;;16.15;100.00;100547.41;5072392;28;20107;-78
2023/09/18 01:45:39;;;;;;;89.63;38.67;;;;;;;16.16;100.00;100547.22;5070851;28;20036;-78
2023/09/18 01:48:06;;;;;;;82.78;38.03;;;;;;;16.21;100.00;100549.38;5072036;28;20067;-77
2023/09/18 01:50:31;;;;;;;88.57;40.65;;;;;;;16.24;100.00;100540.13;5071943;28;20033;-77
2023/09/18 01:52:59;;;;;;;85.65;38.85;;;;;;;16.24;100.00;100542.81;5072469;28;20039;-77
2023/09/18 01:55:24;;;;;;;83.32;36.42;;;;;;;16.24;100.00;100554.38;5072055;28;20029;-78
2023/09/18 01:57:49;;;;;;;79.90;38.65;;;;;;;16.24;100.00;100550.84;5071997;28;20040;-78
2023/09/18 02:00:15;;;;;;;83.07;39.47;;;;;;;16.27;100.00;100558.53;5072207;28;20036;-79
2023/09/18 02:02:41;;;;;;;80.18;38.78;;;;;;;16.29;100.00;100553.84;5072156;28;20112;-78
2023/09/18 02:05:06;;;;;;;84.70;39.30;;;;;;;16.32;100.00;100550.78;5071746;28;20036;-78
2023/09/18 02:07:32;;;;;;;79.68;38.25;;;;;;;16.36;100.00;100557.44;5071992;28;20384;-79
2023/09/18 02:09:57;;;;;;;89.72;39.75;;;;;;;16.40;100.00;100564.13;5071759;28;20024;-79
2023/09/18 02:12:22;;;;;;;84.03;38.20;;;;;;;16.42;100.00;100567.47;5072203;28;20107;-79
2023/09/18 02:14:48;;;;;;;89.40;40.03;;;;;;;16.45;100.00;100566.25;5071508;28;20090;-78
2023/09/18 02:17:13;;;;;;;84.78;38.80;;;;;;;16.46;100.00;100554.50;5071779;28;20043;-81
2023/09/18 02:19:39;;;;;;;87.45;41.47;;;;;;;16.48;100.00;100545.25;5070543;28;20131;-79
2023/09/18 02:22:04;;;;;;;81.03;39.60;;;;;;;16.48;100.00;100542.56;5072029;28;20028;-79
2023/09/18 02:24:29;;;;;;;80.75;38.92;;;;;;;16.51;100.00;100550.25;5073482;28;20078;-79
2023/09/18 02:26:55;;;;;;;78.57;38.10;;;;;;;16.52;100.00;100540.31;5074278;28;20106;-79
2023/09/18 02:29:20;;;;;;;85.53;37.35;;;;;;;16.53;100.00;100533.94;5075533;28;20029;-79
2023/09/18 02:31:46;;;;;;;81.85;37.33;;;;;;;16.56;100.00;100526.34;5075421;28;20036;-79
2023/09/18 02:34:11;;;;;;;84.35;38.47;;;;;;;16.60;100.00;100523.28;5075791;28;20032;-78
2023/09/18 02:36:36;;;;;;;74.75;35.30;;;;;;;16.62;100.00;100507.81;5075580;28;20043;-78
2023/09/18 02:39:02;;;;;;;76.70;36.75;;;;;;;16.64;100.00;100505.78;5075525;28;20059;-79
2023/09/18 02:41:28;;;;;;;76.00;35.65;;;;;;;16.63;100.00;100493.34;5075545;28;20036;-80
2023/09/18 02:43:53;;;;;;;72.20;34.53;;;;;;;16.61;100.00;100479.28;5075604;28;20029;-79
2023/09/18 02:46:18;;;;;;;72.95;34.15;;;;;;;16.61;100.00;100495.41;5075746;28;20425;-80
2023/09/18 02:48:44;;;;;;;64.75;33.65;;;;;;;16.59;100.00;100484.84;5075357;28;20055;-79
2023/09/18 02:51:09;;;;;;;67.65;33.35;;;;;;;16.55;100.00;100467.44;5075260;28;20429;-80
2023/09/18 02:53:35;;;;;;;68.97;33.53;;;;;;;16.55;100.00;100460.22;5075035;28;20120;-81
2023/09/18 02:56:00;;;;;;;74.88;35.42;;;;;;;16.53;100.00;100454.19;5074257;28;20486;-80
2023/09/18 02:58:28;;;;;;;69.72;33.33;;;;;;;16.51;100.00;100432.09;5074685;28;20071;-81
2023/09/18 03:00:54;;;;;;;65.90;32.75;;;;;;;16.51;100.00;100423.19;5075378;28;20508;-79
2023/09/18 03:03:20;;;;;;;68.80;34.85;;;;;;;16.51;100.00;100429.41;5074781;28;20032;-81
2023/09/18 03:05:45;;;;;;;69.40;33.17;;;;;;;16.50;100.00;100411.63;5074819;28;20040;-79
2023/09/18 03:08:12;;;;;;;69.18;34.38;;;;;;;16.52;100.00;100414.13;5075054;28;20086;-80
2023/09/18 03:10:40;;;;;;;70.68;34.42;;;;;;;16.52;100.00;100400.69;5075202;28;20036;-80
2023/09/18 03:13:06;;;;;;;67.47;32.33;;;;;;;16.52;100.00;100411.44;5075123;28;20108;-81
2023/09/18 03:15:32;;;;;;;66.07;33.42;;;;;;;16.51;100.00;100415.13;5075014;28;20060;-82
2023/09/18 03:17:59;;;;;;;64.65;33.60;;;;;;;16.50;100.00;100413.47;5075101;28;20029;-80
2023/09/18 03:20:26;;;;;;;60.45;31.27;;;;;;;16.48;100.00;100405.63;5074839;28;20044;-81
2023/09/18 03:22:52;;;;;;;62.25;31.92;;;;;;;16.45;100.00;100399.78;5073722;28;20484;-80
2023/09/18 03:25:17;;;;;;;62.15;31.27;;;;;;;16.46;100.00;100406.81;5074863;28;20523;-80
2023/09/18 03:27:43;;;;;;;61.30;31.63;;;;;;;16.44;100.00;100419.59;5074769;28;20144;-80
2023/09/18 03:30:10;;;;;;;70.25;30.80;;;;;;;16.45;100.00;100430.16;5074733;28;20075;-80
2023/09/18 03:32:36;;;;;;;71.72;32.47;;;;;;;16.52;100.00;100446.34;5073624;28;20500;-80
2023/09/18 03:35:01;;;;;;;73.68;33.63;;;;;;;16.57;100.00;100455.50;5074285;28;20241;-80
2023/09/18 03:37:27;;;;;;;70.00;31.45;;;;;;;16.62;100.00;100430.75;5073764;28;20487;-80
2023/09/18 03:39:52;;;;;;;74.53;32.28;;;;;;;16.69;100.00;100431.69;5074929;28;20469;-80
2023/09/18 03:42:17;;;;;;;72.95;32.65;;;;;;;16.75;100.00;100435.47;5074017;28;20389;-82
2023/09/18 03:44:43;;;;;;;73.72;32.17;;;;;;;16.81;100.00;100448.13;5074340;28;20131;-81
2023/09/18 03:47:08;;;;;;;66.68;31.83;;;;;;;16.84;100.00;100444.22;5074041;28;20032;-81
2023/09/18 03:49:33;;;;;;;71.55;33.60;;;;;;;16.89;100.00;100452.59;5074498;28;20032;-82
2023/09/18 03:51:59;;;;;;;81.85;31.75;;;;;;;16.92;100.00;100442.28;5074141;28;20031;-85
2023/09/18 03:54:24;;;;;;;63.90;29.98;;;;;;;16.96;100.00;100439.22;5073429;28;20036;-85
2023/09/18 03:56:49;;;;;;;65.70;31.52;;;;;;;17.02;100.00;100431.22;5073975;28;20044;-86
2023/09/18 03:59:15;;;;;;;64.07;29.40;;;;;;;17.02;100.00;100431.22;5072931;28;20056;-83
2023/09/18 04:01:40;;;;;;;49.45;26.80;;;;;;;17.03;100.00;100432.91;5073857;28;20032;-84
2023/09/18 04:04:06;;;;;;;49.95;25.50;;;;;;;17.03;100.00;100416.78;5072499;28;20055;-85
2023/09/18 04:06:42;;;;;;;47.58;23.55;;;;;;;17.04;100.00;100423.78;5074089;28;20174;-85
2023/09/18 04:09:07;;;;;;;45.63;22.23;;;;;;;17.09;100.00;100436.66;5073885;28;20058;-86
2023/09/18 04:11:33;;;;;;;43.95;21.67;;;;;;;17.12;100.00;100419.31;5073529;28;20515;-84
2023/09/18 04:14:00;;;;;;;48.33;21.73;;;;;;;17.14;100.00;100444.13;5073583;28;20033;-84
2023/09/18 04:16:26;;;;;;;37.00;19.45;;;;;;;17.14;100.00;100411.88;5072358;28;20492;-84
2023/09/18 04:18:51;;;;;;;43.22;19.50;;;;;;;17.14;100.00;100420.81;5073826;28;20040;-85
2023/09/18 04:21:17;;;;;;;40.05;18.85;;;;;;;17.15;100.00;100392.06;5074205;28;20042;-87
2023/09/18 04:23:42;;;;;;;40.08;19.83;;;;;;;17.16;100.00;100401.78;5074392;28;20120;-87
2023/09/18 04:26:07;;;;;;;42.33;18.35;;;;;;;17.14;100.00;100391.22;5073550;28;20029;-86
2023/09/18 04:28:33;;;;;;;33.78;17.33;;;;;;;17.13;100.00;100375.31;5072539;28;20031;-86
2023/09/18 04:30:58;;;;;;;36.20;17.50;;;;;;;17.12;100.00;100354.81;5073921;28;20040;-85
2023/09/18 04:33:25;;;;;;;33.00;15.95;;;;;;;17.10;100.00;100363.88;5075285;28;20056;-87
2023/09/18 04:35:50;;;;;;;31.23;16.33;;;;;;;17.07;100.00;100366.16;5075074;28;20123;-86
2023/09/18 04:38:16;;;;;;;34.97;15.40;;;;;;;17.06;100.00;100369.84;5073789;28;20129;-86
2023/09/18 04:40:45;;;;;;;30.63;15.35;;;;;;;17.03;100.00;100368.41;5073376;28;20029;-86
2023/09/18 04:43:11;;;;;;;34.50;14.98;;;;;;;17.02;100.00;100361.34;5072154;28;20032;-86
2023/09/18 04:45:36;;;;;;;31.63;15.05;;;;;;;17.04;100.00;100369.22;5072069;28;20107;-85
2023/09/18 04:48:02;;;;;;;32.95;15.30;;;;;;;17.07;100.00;100374.22;5072820;28;20385;-86
2023/09/18 04:50:28;;;;;;;35.00;15.90;;;;;;;17.07;100.00;100380.41;5073165;28;20131;-85
2023/09/18 04:52:54;;;;;;;36.10;16.65;;;;;;;17.06;100.00;100386.84;5071995;28;20069;-84
2023/09/18 04:55:21;;;;;;;36.35;16.83;;;;;;;17.06;100.00;100372.53;5073233;28;20037;-84
2023/09/18 04:57:46;;;;;;;31.98;16.92;;;;;;;17.06;100.00;100368.00;5073286;28;20119;-85
2023/09/18 05:00:13;;;;;;;38.17;17.13;;;;;;;17.07;100.00;100371.53;5071305;28;20123;-86
2023/09/18 05:02:39;;;;;;;34.92;16.63;;;;;;;17.05;100.00;100370.91;5072743;28;20036;-86
2023/09/18 05:05:05;;;;;;;42.97;19.17;;;;;;;17.05;100.00;100370.91;5071433;28;20047;-85
2023/09/18 05:07:32;;;;;;;50.25;22.35;;;;;;;17.06;100.00;100365.31;5072839;28;20040;-85
2023/09/18 05:09:58;;;;;;;48.22;21.60;;;;;;;17.09;100.00;100356.88;5072411;28;20082;-84
2023/09/18 05:12:23;;;;;;;52.80;23.17;;;;;;;17.12;100.00;100352.94;5073429;28;20040;-85
2023/09/18 05:14:48;;;;;;;43.95;21.20;;;;;;;17.16;100.00;100356.91;5070882;28;20040;-84
2023/09/18 05:17:16;;;;;;;43.08;22.73;;;;;;;17.21;100.00;100353.66;5072266;28;20068;-83
2023/09/18 05:19:42;;;;;;;42.15;21.17;;;;;;;17.21;100.00;100350.94;5072217;28;20423;-85
2023/09/18 05:22:11;;;;;;;40.80;20.27;;;;;;;17.20;100.00;100344.75;5073434;28;20024;-86
2023/09/18 05:24:38;;;;;;;42.97;19.38;;;;;;;17.19;100.00;100334.19;5072520;28;20078;-86
2023/09/18 05:27:06;;;;;;;37.85;17.95;;;;;;;17.19;100.00;100331.50;5071827;28;20391;-86
2023/09/18 05:29:31;;;;;;;39.17;18.65;;;;;;;17.18;100.00;100338.75;5074284;28;20123;-85
2023/09/18 05:31:57;;;;;;;43.65;19.38;;;;;;;17.16;100.00;100337.28;5072384;28;20150;-86
2023/09/18 05:34:22;;;;;;;40.53;19.75;;;;;;;17.14;100.00;100342.84;5074017;28;20464;-85
2023/09/18 05:36:48;;;;;;;43.88;20.90;;;;;;;17.15;100.00;100332.91;5072684;28;20040;-85
2023/09/18 05:39:14;;;;;;;42.85;19.85;;;;;;;17.11;100.00;100311.00;5071891;28;20549;-86
2023/09/18 05:41:39;;;;;;;45.95;21.73;;;;;;;17.12;100.00;100311.81;5072325;28;20089;-86
2023/09/18 05:44:07;;;;;;;40.97;20.23;;;;;;;17.08;100.00;100317.56;5072632;28;20139;-86
2023/09/18 05:46:34;;;;;;;42.30;20.45;;;;;;;17.06;100.00;100325.00;5072562;28;20037;-86
2023/09/18 05:49:00;;;;;;;40.65;20.05;;;;;;;17.04;100.00;100328.91;5072098;28;20028;-86
2023/09/18 05:51:26;;;;;;;39.85;19.27;;;;;;;17.04;100.00;100328.91;5072606;28;20448;-86
2023/09/18 05:53:51;;;;;;;38.15;19.40;;;;;;;17.01;100.00;100330.13;5072423;28;20035;-86
2023/09/18 05:56:17;;;;;;;38.92;18.70;;;;;;;17.00;100.00;100322.25;5072441;28;20039;-86
2023/09/18 05:58:43;;;;;;;38.50;17.80;;;;;;;16.96;100.00;100319.13;5072970;28;20123;-86
2023/09/18 06:01:11;;;;;;;35.53;17.83;;;;;;;16.95;100.00;100322.03;5075894;28;20037;-87
2023/09/18 06:03:36;;;;;;;35.72;18.55;;;;;;;16.94;100.00;100323.84;5076221;28;20028;-86
2023/09/18 06:06:03;;;;;;;38.22;18.92;;;;;;;16.89;100.00;100329.00;5075129;28;20123;-85
2023/09/18 06:08:30;;;;;;;41.60;19.80;;;;;;;16.88;100.00;100338.06;5074962;28;20036;-85
2023/09/18 06:10:56;;;;;;;46.60;21.30;;;;;;;16.86;100.00;100354.34;5076360;28;20036;-83
2023/09/18 06:13:22;;;;;;;42.53;20.17;;;;;;;16.84;100.00;100348.34;5076185;28;20040;-84
2023/09/18 06:15:48;;;;;;;39.13;19.30;;;;;;;16.80;100.00;100339.00;5074933;28;20531;-84
2023/09/18 06:18:13;;;;;;;42.42;21.20;;;;;;;16.80;100.00;100332.81;5075328;28;20040;-82
2023/09/18 06:20:39;;;;;;;43.38;21.38;;;;;;;16.78;100.00;100335.69;5074567;28;20036;-83
2023/09/18 06:23:05;;;;;;;42.80;21.45;;;;;;;16.76;100.00;100335.03;5076137;28;20119;-83
2023/09/18 06:25:31;;;;;;;48.42;23.27;;;;;;;16.77;100.00;100349.31;5076639;28;20119;-83
2023/09/18 06:27:56;;;;;;;53.65;25.95;;;;;;;16.78;100.00;100348.25;5077905;28;20028;-85
2023/09/18 06:30:22;;;;;;;57.05;26.38;;;;;;;16.79;100.00;100336.50;5077023;28;20036;-85
2023/09/18 06:32:48;;;;;;;59.05;26.55;;;;;;;16.81;100.00;100332.63;5077777;28;20060;-81
2023/09/18 06:35:13;;;;;;;60.60;28.20;;;;;;;16.84;100.00;100332.22;5076446;28;20041;-79
2023/09/18 06:37:39;;;;;;;69.28;28.50;;;;;;;16.88;100.00;100325.47;5075161;28;20043;-81
2023/09/18 06:40:05;;;;;;;78.28;29.77;;;;;;;16.97;100.00;100322.66;5076539;28;20025;-81
2023/09/18 06:42:31;;;;;;;62.25;28.40;;;;;;;17.01;100.00;100307.81;5074969;28;20037;-84
2023/09/18 06:44:57;;;;;;;64.43;26.63;;;;;;;17.02;100.00;100306.78;5075911;28;20480;-83
2023/09/18 06:47:24;;;;;;;59.75;25.50;;;;;;;16.99;100.00;100310.69;5074281;28;20033;-81
2023/09/18 06:49:49;;;;;;;52.58;23.17;;;;;;;17.03;100.00;100309.28;5075674;28;20052;-82
2023/09/18 06:52:16;;;;;;;55.78;22.98;;;;;;;17.12;100.00;100314.50;5075217;28;20492;-82
2023/09/18 06:54:43;;;;;;;44.20;20.30;;;;;;;17.15;100.00;100314.94;5075877;28;20028;-83
2023/09/18 06:57:09;;;;;;;47.08;20.17;;;;;;;17.16;100.00;100313.09;5074392;28;20037;-81
2023/09/18 06:59:35;;;;;;;40.67;17.85;;;;;;;17.16;100.00;100327.34;5076036;28;20035;-83
2023/09/18 07:02:01;;;;;;;42.15;17.35;;;;;;;17.15;100.00;100340.97;5075728;28;20040;-83
2023/09/18 07:04:26;;;;;;;41.08;16.98;;;;;;;17.13;100.00;100346.56;5075532;28;20402;-82
2023/09/18 07:06:53;;;;;;;37.22;16.10;;;;;;;17.09;100.00;100338.06;5074370;28;20115;-82
2023/09/18 07:09:19;;;;;;;32.88;13.63;;;;;;;17.02;100.00;100339.03;5074147;28;20037;-81
2023/09/18 07:11:45;;;;;;;25.70;12.40;;;;;;;17.02;100.00;100349.78;5075243;28;20031;-83
2023/09/18 07:14:10;;;;;;;29.92;12.60;;;;;;;16.98;100.00;100340.44;5075206;28;20440;-84
2023/09/18 07:16:35;;;;;;;31.85;12.65;;;;;;;16.97;100.00;100338.75;5075557;28;20037;-83
2023/09/18 07:19:04;;;;;;;27.42;10.65;;;;;;;16.98;100.00;100337.75;5075332;28;20041;-83
2023/09/18 07:21:29;;;;;;;20.23;10.35;;;;;;;17.04;100.00;100334.28;5075215;28;20029;-83
2023/09/18 07:23:56;;;;;;;20.80;10.40;;;;;;;17.13;100.00;100337.66;5073373;28;20469;-80
2023/09/18 07:26:22;;;;;;;17.70;9.48;;;;;;;17.18;100.00;100332.53;5073331;28;20040;-82
2023/09/18 07:28:48;;;;;;;14.60;8.02;;;;;;;17.20;100.00;100333.19;5073584;28;20411;-81
2023/09/18 07:31:14;;;;;;;16.98;8.90;;;;;;;17.13;100.00;100351.94;5074635;28;20458;-78
2023/09/18 07:33:40;;;;;;;14.20;7.32;;;;;;;17.04;100.00;100353.91;5075204;28;20049;-79
2023/09/18 07:36:06;;;;;;;16.90;7.35;;;;;;;17.01;100.00;100358.88;5074201;28;20074;-81
2023/09/18 07:38:31;;;;;;;11.70;6.43;;;;;;;17.01;100.00;100365.06;5074939;28;20154;-82
2023/09/18 07:40:57;;;;;;;12.85;7.25;;;;;;;17.06;100.00;100367.16;5056396;28;20036;-82
2023/09/18 07:43:24;;;;;;;11.43;7.25;;;;;;;17.05;100.00;100379.78;5074465;28;20031;-80
2023/09/18 07:45:50;;;;;;;13.35;6.25;;;;;;;17.14;100.00;100377.78;5074683;28;20032;-82
2023/09/18 07:48:19;;;;;;;13.40;7.03;;;;;;;17.25;100.00;100387.19;5075104;28;20557;-81
2023/09/18 07:50:45;;;;;;;11.52;6.40;;;;;;;17.37;100.00;100384.81;5074623;28;20078;-82
2023/09/18 07:53:13;;;;;;;11.20;6.70;;;;;;;17.44;100.00;100391.06;5074433;28;20384;-81
2023/09/18 07:55:38;;;;;;;18.92;6.00;;;;;;;17.49;100.00;100395.84;5074315;28;20118;-82
2023/09/18 07:58:05;;;;;;;12.90;5.65;;;;;;;17.51;100.00;100394.66;5074710;28;20457;-84
2023/09/18 08:00:33;;;;;;;15.00;6.13;;;;;;;17.63;100.00;100389.56;5073798;28;20035;-84
2023/09/18 08:03:01;;;;;;;11.13;4.88;;;;;;;17.60;100.00;100395.31;5074286;28;20039;-79
2023/09/18 08:05:30;;;;;;;12.48;4.93;;;;;;;17.72;100.00;100391.06;5074045;28;20055;-78
2023/09/18 08:07:59;;;;;;;13.13;4.85;;;;;;;17.96;100.00;100400.56;5073334;28;20039;-80
2023/09/18 08:10:26;;;;;;;11.38;4.20;;;;;;;18.20;100.00;100395.69;5056018;28;20369;-78
2023/09/18 08:12:53;;;;;;;9.15;3.88;;;;;;;18.23;100.00;100402.56;5072512;28;20033;-81
2023/09/18 08:15:20;;;;;;;7.28;3.75;;;;;;;18.31;100.00;100410.44;5073695;28;20181;-83
2023/09/18 08:17:46;;;;;;;4.80;3.20;;;;;;;18.42;100.00;100409.88;5072718;28;20536;-84
2023/09/18 08:20:15;;;;;;;10.35;3.65;;;;;;;18.50;100.00;100412.38;5073289;28;20111;-80
2023/09/18 08:22:41;;;;;;;7.60;3.42;;;;;;;18.68;100.00;100408.31;5072957;28;20029;-82
2023/09/18 08:25:10;;;;;;;8.30;3.25;;;;;;;18.84;100.00;100407.94;5072921;28;20035;-79
2023/09/18 08:27:39;;;;;;;5.90;2.80;;;;;;;19.00;100.00;100411.31;5073849;28;20090;-84
2023/09/18 08:30:05;;;;;;;9.90;2.90;;;;;;;19.23;100.00;100402.84;5073759;28;20041;-82
2023/09/18 08:32:33;;;;;;;9.23;2.90;;;;;;;19.20;100.00;100401.38;5072421;28;20546;-78
2023/09/18 08:35:01;;;;;;;5.38;2.60;;;;;;;19.09;100.00;100403.84;5073813;28;20037;-82
2023/09/18 08:37:26;;;;;;;8.20;3.15;;;;;;;18.80;100.00;100412.06;5055855;28;20038;-80
2023/09/18 08:39:52;;;;;;;4.97;2.80;;;;;;;18.58;100.00;100403.28;5073024;28;20032;-80
2023/09/18 08:42:20;;;;;;;5.53;3.15;;;;;;;18.31;100.00;100413.16;5072086;28;20025;-78
2023/09/18 08:44:51;;;;;;;7.95;2.80;;;;;;;18.16;100.00;100407.91;5055237;28;20115;-79
2023/09/18 08:47:19;;;;;;;5.78;3.15;;;;;;;18.17;100.00;100417.66;5073519;28;20088;-78
2023/09/18 08:49:48;;;;;;;4.90;3.03;;;;;;;18.14;100.00;100407.28;5073269;28;20031;-77
2023/09/18 08:52:15;;;;;;;5.85;3.28;;;;;;;18.31;100.00;100413.97;5073699;28;20028;-80
2023/09/18 08:54:40;;;;;;;8.60;3.72;;;;;;;18.48;100.00;100414.47;5073317;28;20044;-79
2023/09/18 08:57:07;;;;;;;6.57;3.03;;;;;;;18.61;100.00;100410.97;5073905;28;20036;-79
2023/09/18 08:59:35;;;;;;;5.22;3.45;;;;;;;19.20;100.00;100412.16;5074506;28;20060;-78
2023/09/18 09:02:01;;;;;;;6.93;2.90;;;;;;;20.11;100.00;100407.13;5076371;28;20099;-84
2023/09/18 09:04:27;;;;;;;7.85;3.00;;;;;;;20.63;100.00;100407.13;5073751;28;20058;-81
2023/09/18 09:06:52;;;;;;;7.97;2.90;;;;;;;21.02;100.00;100409.78;5073543;28;20115;-81
2023/09/18 09:09:19;;;;;;;11.40;3.28;;;;;;;20.65;100.00;100415.81;5073727;28;20479;-84
2023/09/18 09:11:51;;;;;;;6.03;2.80;;;;;;;20.37;100.00;100418.84;5073334;28;20032;-83
2023/09/18 09:14:27;;;;;;;6.70;3.15;;;;;;;20.20;100.00;100418.53;5074004;28;20036;-89
2023/09/18 09:16:57;;;;;;;5.78;3.13;;;;;;;20.11;100.00;100420.63;5074251;28;20032;-88
2023/09/18 09:19:36;;;;;;;19.13;3.25;;;;;;;19.98;100.00;100407.16;5074561;28;20054;-90
2023/09/18 09:22:02;;;;;;;5.95;3.30;;;;;;;20.40;100.00;100415.72;5074043;28;20036;-78
2023/09/18 09:24:43;;;;;;;8.60;2.85;;;;;;;20.90;100.00;100406.97;5073524;28;20111;-76
2023/09/18 09:27:10;;;;;;;6.80;3.22;;;;;;;21.38;100.00;100410.97;5073254;28;20465;-79
2023/09/18 09:29:36;;;;;;;5.63;2.78;;;;;;;21.24;100.00;100408.41;5073354;28;20089;-80
2023/09/18 09:32:19;;;;;;;5.10;2.83;;;;;;;20.80;100.00;100401.22;5073233;28;20028;-79
2023/09/18 09:34:46;;;;;;;5.35;2.88;;;;;;;21.12;100.00;100400.19;5056282;28;20381;-80
2023/09/18 09:37:13;;;;;;;5.07;2.95;;;;;;;22.03;100.00;100402.47;5071796;28;20120;-76
2023/09/18 09:39:48;;;;;;;7.78;2.55;;;;;;;23.05;100.00;100392.84;5071611;28;20071;-77
2023/09/18 09:42:24;;;;;;;4.13;2.40;;;;;;;23.41;100.00;100405.41;5073064;28;20059;-79
2023/09/18 09:45:01;;;;;;;5.03;2.95;;;;;;;23.52;100.00;100394.78;5073754;28;20028;-79
2023/09/18 09:47:27;;;;;;;7.57;3.03;;;;;;;23.70;100.00;100405.53;5073328;28;20033;-78
2023/09/18 09:49:54;;;;;;;7.35;2.65;;;;;;;23.31;100.00;100402.44;5073236;28;20150;-79
2023/09/18 09:52:22;;;;;;;4.35;2.47;;;;;;;23.07;100.00;100396.94;5071414;28;20070;-78
2023/09/18 09:54:48;;;;;;;8.20;2.40;;;;;;;23.70;100.00;100404.72;5073070;28;20123;-78
2023/09/18 09:57:13;;;;;;;6.47;2.60;;;;;;;23.62;100.00;100416.75;5071716;28;20533;-79
2023/09/18 09:59:39;;;;;;;6.88;2.42;;;;;;;23.54;100.00;100415.22;5072934;28;20047;-79
2023/09/18 10:02:09;;;;;;;8.63;2.50;;;;;;;23.66;100.00;100414.38;5073320;28;20029;-77
2023/09/18 10:04:36;;;;;;;7.47;3.03;;;;;;;23.10;100.00;100414.69;5072466;28;20417;-79
2023/09/18 10:07:07;;;;;;;4.63;2.70;;;;;;;22.62;100.00;100415.56;5072819;28;20036;-79
2023/09/18 10:09:35;;;;;;;4.80;2.88;;;;;;;21.98;100.00;100410.47;5073429;28;20071;-80
2023/09/18 10:12:04;;;;;;;4.57;2.63;;;;;;;21.60;100.00;100408.75;5072815;28;20040;-81
2023/09/18 10:14:31;;;;;;;9.60;3.42;;;;;;;21.73;100.00;100418.63;5072704;28;20041;-79
2023/09/18 10:17:04;;;;;;;5.65;3.08;;;;;;;21.60;100.00;100408.75;5073080;28;20093;-79
2023/09/18 10:19:40;;;;;;;9.15;3.00;;;;;;;21.15;100.00;100415.13;5073498;28;20043;-80
2023/09/18 10:22:32;;;;;;;8.13;3.00;;;;;;;20.89;100.00;100418.84;5072539;28;20025;-80
2023/09/18 10:25:13;;;;;;;7.20;3.22;;;;;;;20.90;100.00;100413.22;5073059;28;20116;-81
2023/09/18 10:27:40;;;;;;;5.10;2.87;;;;;;;21.26;100.00;100410.91;5072938;28;20530;-80
2023/09/18 10:30:10;;;;;;;4.20;3.08;;;;;;;21.43;100.00;100414.69;5073030;28;20033;-80
2023/09/18 10:32:39;;;;;;;4.40;2.92;;;;;;;21.35;100.00;100417.69;5071784;28;20065;-80
2023/09/18 10:35:07;;;;;;;5.72;3.10;;;;;;;21.83;100.00;100406.22;5072093;28;20071;-81
2023/09/18 10:37:34;;;;;;;11.75;2.90;;;;;;;22.46;100.00;100409.69;5072453;28;20465;-80
2023/09/18 10:40:00;;;;;;;5.03;2.70;;;;;;;22.59;100.00;100410.59;5072539;28;20025;-82
2023/09/18 10:42:27;;;;;;;7.47;2.60;;;;;;;22.47;100.00;100402.41;5072142;28;20103;-80
2023/09/18 10:44:54;;;;;;;3.72;2.42;;;;;;;22.39;100.00;100403.53;5073587;28;20029;-84
2023/09/18 10:47:20;;;;;;;5.68;2.67;;;;;;;22.51;100.00;100403.59;5075177;28;20028;-80
2023/09/18 10:49:46;;;;;;;4.05;2.33;;;;;;;22.35;100.00;100415.91;5074514;28;20043;-82
2023/09/18 10:52:13;;;;;;;9.55;2.88;;;;;;;21.89;100.00;100406.41;5075922;28;20021;-82
2023/09/18 10:54:39;;;;;;;8.10;2.40;;;;;;;21.65;100.00;100409.75;5074634;28;20373;-82
2023/09/18 10:57:05;;;;;;;7.85;3.25;;;;;;;21.28;100.00;100408.78;5076017;28;20409;-87
2023/09/18 10:59:31;;;;;;;4.85;2.80;;;;;;;21.23;100.00;100424.84;5075668;28;20112;-83
2023/09/18 11:02:02;;;;;;;4.60;2.30;;;;;;;21.02;100.00;100420.63;5076479;28;20032;-85
2023/09/18 11:04:31;;;;;;;4.10;2.47;;;;;;;20.94;100.00;100422.56;5076155;28;20032;-83